Terminal Aerodrome Forecast
Issued by NWS

Home | Current Version | Previous Version | Text Only | Print | Product List | Glossary On
Versions: 1 2 3 4 5 6 7 8 9 10 11 12 13
000
FTUS45 KTFX 260614 RRA
TAFCTB
TAF
KCTB 260614Z 2606/2706 19012KT P6SM VCSH SCT050 BKN080
     FM260900 28007KT P6SM SCT080
     FM262100 32009KT P6SM VCSH SCT050 BKN100 PROB30 2623/2705 6SM
      -TSRA BKN050CB BKN060
     FM270500 29008KT P6SM SCT050 BKN120=

USA.gov is the U.S. government's official web portal to all federal, state and local government web resources and services.